Time;durP1;ratioP1;P1;durP2;ratioP2;P2;SDS_P1;SDS_P2;PMS_P1;PMS_P2;Temp;Humidity;BMP_temperature;BMP_pressure;BME280_temperature;BME280_humidity;BME280_pressure;Samples;Min_cycle;Max_cycle;Signal;HPM_P1;HPM_P2
2022/01/21 00:44:58;;;;;;;66.97;27.02;;;;;;;2.01;100.00;100827.94;4977730;28;20094;-82
2022/01/21 04:05:57;;;;;;;65.47;26.77;;;;;;;2.34;100.00;100870.19;4753432;23;20068;-82
2022/01/21 06:24:37;;;;;;;70.93;30.27;;;;;;;0.75;100.00;101060.25;5670792;23;20056;-83
2022/01/21 07:00:30;;;;;;;83.67;35.90;;;;;;;0.94;100.00;101104.41;5878106;23;20355;-84
2022/01/21 07:46:07;;;;;;;177.07;51.93;;;;;;;1.68;100.00;101170.59;5938378;23;21473;-84
2022/01/21 07:59:20;;;;;;;118.93;49.22;;;;;;;2.12;100.00;101194.13;5308448;23;20426;-82
2022/01/21 08:01:45;;;;;;;;;;;;;;;2.13;100.00;101198.38;4921069;29;20067;-80
2022/01/21 08:04:12;;;;;;;122.18;48.65;;;;;;;2.21;100.00;101195.31;4920324;29;20401;-80
2022/01/21 08:06:38;;;;;;;123.60;49.63;;;;;;;2.27;100.00;101198.41;4923505;29;20074;-79
2022/01/21 08:09:04;;;;;;;121.90;48.78;;;;;;;2.28;100.00;101202.72;4924432;29;20029;-79
2022/01/21 08:11:33;;;;;;;122.32;48.40;;;;;;;2.66;100.00;101215.19;4923601;29;20041;-80
2022/01/21 08:13:59;;;;;;;138.30;49.75;;;;;;;2.62;100.00;101229.44;4923743;29;20050;-80
2022/01/21 08:16:24;;;;;;;141.32;54.70;;;;;;;2.51;100.00;101223.09;4928018;29;20123;-80
2022/01/21 08:18:50;;;;;;;163.30;53.35;;;;;;;2.64;100.00;101225.78;4929833;29;20043;-80
2022/01/21 08:21:19;;;;;;;122.90;48.88;;;;;;;2.55;100.00;101234.19;4928253;29;20036;-81
2022/01/21 08:23:50;;;;;;;128.27;52.22;;;;;;;2.49;100.00;101239.78;4930092;29;20049;-80
2022/01/21 08:26:24;;;;;;;127.07;50.78;;;;;;;2.54;100.00;101243.81;4925892;29;20043;-82
2022/01/21 08:28:51;;;;;;;123.68;50.95;;;;;;;2.66;100.00;101254.47;4918889;29;20055;-80
2022/01/21 08:31:17;;;;;;;140.25;50.72;;;;;;;2.72;100.00;101262.78;4920390;29;20435;-85
2022/01/21 08:33:43;;;;;;;129.13;50.03;;;;;;;2.81;100.00;101269.22;4918268;29;20115;-80
2022/01/21 08:36:10;;;;;;;122.22;47.90;;;;;;;2.77;100.00;101265.13;4909424;29;20036;-81
2022/01/21 08:38:36;;;;;;;124.47;47.80;;;;;;;3.05;100.00;101271.16;4920613;29;20055;-80
2022/01/21 08:41:02;;;;;;;124.63;45.88;;;;;;;2.85;100.00;101275.97;4905150;29;20047;-86
2022/01/21 08:43:31;;;;;;;132.75;44.97;;;;;;;3.18;100.00;101281.72;4922486;29;20035;-85
2022/01/21 08:45:56;;;;;;;163.68;48.05;;;;;;;3.17;100.00;101290.50;4923034;29;20071;-82
2022/01/21 08:48:23;;;;;;;138.82;45.72;;;;;;;3.24;100.00;101285.72;4921334;29;20084;-82
2022/01/21 08:50:49;;;;;;;105.22;44.10;;;;;;;3.06;100.00;101295.56;4922487;29;20036;-80
2022/01/21 08:55:59;;;;;;;131.95;50.78;;;;;;;2.62;100.00;101293.06;4900792;29;20131;-81
2022/01/21 08:58:26;;;;;;;108.45;47.03;;;;;;;2.75;100.00;101298.41;4901190;29;20498;-81
2022/01/21 09:01:01;;;;;;;108.75;46.92;;;;;;;2.66;100.00;101310.25;4900812;29;20120;-84
2022/01/21 09:03:26;;;;;;;141.45;44.08;;;;;;;2.60;100.00;101308.84;4909339;29;20032;-82
2022/01/21 09:05:52;;;;;;;99.45;41.15;;;;;;;2.62;100.00;101306.13;4910610;29;20044;-85
2022/01/21 09:08:22;;;;;;;133.02;46.00;;;;;;;2.58;100.00;101313.34;4906200;29;20028;-85
2022/01/21 09:10:49;;;;;;;141.32;50.60;;;;;;;2.49;100.00;101315.66;4919948;29;20064;-86
2022/01/21 09:13:15;;;;;;;117.22;46.83;;;;;;;2.45;100.00;101314.19;4920436;29;20039;-84
2022/01/21 09:15:40;;;;;;;97.00;34.08;;;;;;;2.53;100.00;101331.09;4919582;29;20398;-82
2022/01/21 09:18:09;;;;;;;81.13;32.35;;;;;;;2.59;100.00;101343.78;4927088;29;20036;-81
2022/01/21 09:20:37;;;;;;;80.43;31.85;;;;;;;2.63;100.00;101341.00;4911558;29;20095;-80
2022/01/21 09:23:04;;;;;;;65.80;28.48;;;;;;;2.62;100.00;101363.69;4923938;29;20393;-79
2022/01/21 09:25:32;;;;;;;70.32;28.90;;;;;;;2.47;100.00;101373.31;4923610;29;20047;-85
2022/01/21 09:27:59;;;;;;;72.72;26.83;;;;;;;2.36;100.00;101382.69;4923076;29;20036;-78
2022/01/21 09:30:25;;;;;;;78.82;33.63;;;;;;;2.33;100.00;101385.50;4920882;29;20438;-83
2022/01/21 09:32:51;;;;;;;441.35;51.80;;;;;;;2.49;100.00;101402.84;4920881;29;20084;-82
2022/01/21 09:35:17;;;;;;;91.07;33.55;;;;;;;2.60;100.00;101404.81;4920586;29;20096;-84
2022/01/21 09:37:42;;;;;;;100.45;36.03;;;;;;;2.67;100.00;101410.53;4921201;29;20479;-90
2022/01/21 09:40:10;;;;;;;137.82;40.38;;;;;;;2.95;100.00;101410.63;4919783;29;20566;-79
2022/01/21 09:42:37;;;;;;;106.85;36.03;;;;;;;2.93;100.00;101412.47;4919749;29;20382;-82
2022/01/21 09:45:08;;;;;;;93.90;38.50;;;;;;;3.19;100.00;101419.59;4918107;29;20043;-81
2022/01/21 09:47:48;;;;;;;100.32;39.03;;;;;;;3.30;100.00;101416.31;4920747;29;20115;-85
2022/01/21 09:50:19;;;;;;;112.13;38.75;;;;;;;3.19;100.00;101424.81;4922513;29;20064;-83
2022/01/21 09:52:46;;;;;;;107.07;41.03;;;;;;;2.88;100.00;101425.84;4919978;29;20036;-81
2022/01/21 09:55:12;;;;;;;114.03;42.47;;;;;;;2.92;100.00;101431.72;4919603;29;20115;-82
2022/01/21 09:57:41;;;;;;;97.00;37.85;;;;;;;3.15;100.00;101436.41;4918067;29;20052;-81
2022/01/21 10:00:26;;;;;;;91.57;38.58;;;;;;;3.30;100.00;101432.88;4927928;29;20044;-82
2022/01/21 10:03:01;;;;;;;102.07;40.42;;;;;;;3.38;100.00;101438.47;4933449;29;20036;-90
2022/01/21 10:05:27;;;;;;;122.00;46.13;;;;;;;3.36;100.00;101448.22;4912274;29;20040;-85
2022/01/21 10:07:57;;;;;;;102.75;43.22;;;;;;;3.02;100.00;101443.31;4911373;29;20040;-82
2022/01/21 10:10:29;;;;;;;142.77;48.95;;;;;;;2.86;100.00;101447.78;4908505;29;20460;-88
2022/01/21 10:13:02;;;;;;;117.55;43.67;;;;;;;2.88;100.00;101443.31;4904556;29;20064;-83
2022/01/21 10:15:30;;;;;;;110.03;42.53;;;;;;;2.80;100.00;101445.53;4913748;29;20392;-80
2022/01/21 10:18:04;;;;;;;120.45;45.03;;;;;;;2.71;100.00;101446.09;4924300;29;20087;-87
2022/01/21 10:20:30;;;;;;;127.75;45.47;;;;;;;2.70;100.00;101437.38;4914541;29;20463;-83
2022/01/21 10:23:02;;;;;;;118.13;44.60;;;;;;;2.73;100.00;101431.13;4902357;29;20033;-83
2022/01/21 10:25:29;;;;;;;217.13;55.88;;;;;;;2.78;100.00;101424.69;4902734;29;20036;-79
2022/01/21 10:28:17;;;;;;;178.50;45.17;;;;;;;2.84;100.00;101432.19;4904573;29;20051;-80
2022/01/21 10:30:44;;;;;;;102.93;42.65;;;;;;;2.86;100.00;101430.31;4903392;29;20036;-84
2022/01/21 10:33:24;;;;;;;104.03;41.95;;;;;;;2.79;100.00;101425.50;4908503;29;20055;-92
2022/01/21 10:35:51;;;;;;;116.53;43.00;;;;;;;2.76;100.00;101423.09;4904534;29;20071;-87
2022/01/21 10:38:27;;;;;;;110.10;42.60;;;;;;;2.85;100.00;101419.94;4906326;29;20052;-77
2022/01/21 10:41:03;;;;;;;115.20;44.67;;;;;;;2.93;100.00;101420.31;4912797;29;20068;-84
2022/01/21 10:43:35;;;;;;;125.60;46.92;;;;;;;2.95;100.00;101411.44;4924028;29;20046;-83
2022/01/21 10:46:02;;;;;;;129.02;46.10;;;;;;;3.02;100.00;101407.50;4939554;29;20040;-84
2022/01/21 10:48:30;;;;;;;271.35;55.55;;;;;;;3.18;100.00;101410.06;4923059;29;20047;-82
2022/01/21 10:51:19;;;;;;;709.25;88.63;;;;;;;3.35;100.00;101409.84;4923503;29;20040;-78
2022/01/21 10:53:45;;;;;;;146.32;50.35;;;;;;;3.39;100.00;101411.34;4924051;29;20071;-82
2022/01/21 10:56:16;;;;;;;143.35;52.10;;;;;;;3.47;100.00;101410.88;4926383;29;20112;-88
2022/01/21 10:58:44;;;;;;;149.15;52.38;;;;;;;3.80;100.00;101405.31;4924462;29;20418;-84
2022/01/21 11:01:17;;;;;;;185.75;56.05;;;;;;;3.79;100.00;101403.63;4926636;29;20072;-86
2022/01/21 11:04:15;;;;;;;168.30;57.17;;;;;;;3.84;100.00;101398.94;4913979;29;20494;-82
2022/01/21 11:07:07;;;;;;;468.30;81.85;;;;;;;3.86;100.00;101389.19;4886322;29;20049;-83
2022/01/21 11:09:37;;;;;;;170.27;55.63;;;;;;;3.93;100.00;101390.47;4880098;29;20086;-80
2022/01/21 11:12:15;;;;;;;164.20;58.85;;;;;;;3.96;100.00;101393.75;4890226;29;20104;-82
2022/01/21 11:15:01;;;;;;;173.38;58.33;;;;;;;4.07;100.00;101390.44;4882632;29;20045;-88
2022/01/21 11:17:27;;;;;;;173.10;61.42;;;;;;;4.11;100.00;101384.03;4920456;29;20373;-85
2022/01/21 11:20:16;;;;;;;157.80;57.33;;;;;;;4.30;100.00;101387.16;4927168;29;20123;-84
2022/01/21 11:22:53;;;;;;;179.10;60.45;;;;;;;4.41;100.00;101395.13;4927695;29;20028;-85
2022/01/21 11:25:38;;;;;;;174.65;60.08;;;;;;;4.50;100.00;101398.97;4925981;29;20099;-87
2022/01/21 11:28:04;;;;;;;177.18;61.72;;;;;;;4.38;100.00;101402.38;4912338;29;20040;-82
2022/01/21 11:30:29;;;;;;;190.25;63.88;;;;;;;4.60;100.00;101395.63;4905547;29;20108;-89
2022/01/21 11:32:55;;;;;;;189.15;63.22;;;;;;;4.68;100.00;101389.84;4904261;29;20044;-80
2022/01/21 11:35:31;;;;;;;192.88;63.33;;;;;;;4.75;100.00;101390.25;4921085;29;20119;-85
2022/01/21 11:38:04;;;;;;;183.77;61.63;;;;;;;4.79;100.00;101370.72;4927430;29;20117;-83
2022/01/21 11:40:32;;;;;;;178.98;61.15;;;;;;;4.82;100.00;101381.03;4925441;29;20167;-88
2022/01/21 11:42:58;;;;;;;171.38;58.28;;;;;;;4.77;100.00;101372.63;4926629;29;20040;-87
2022/01/21 11:51:30;;;;;;;150.25;53.97;;;;;;;5.02;100.00;101356.88;4907549;29;20052;-87
2022/01/21 11:54:05;;;;;;;143.45;50.92;;;;;;;5.13;100.00;101354.34;4926909;29;20044;-88
2022/01/21 11:56:46;;;;;;;144.63;50.42;;;;;;;5.11;100.00;101356.22;4925560;29;20036;-85
2022/01/21 11:59:34;;;;;;;143.18;51.80;;;;;;;5.06;100.00;101348.69;4925688;29;20417;-91
2022/01/21 12:02:16;;;;;;;138.35;50.28;;;;;;;5.22;100.00;101343.19;4923045;29;20043;-84
2022/01/21 12:05:07;;;;;;;138.63;50.75;;;;;;;5.15;100.00;101339.31;4923233;29;20131;-80
2022/01/21 12:07:49;;;;;;;147.63;52.10;;;;;;;5.19;100.00;101330.25;4944765;23;20107;-81
2022/01/21 12:10:23;;;;;;;136.40;51.55;;;;;;;5.29;100.00;101328.66;4940585;29;20044;-84
2022/01/21 12:12:57;;;;;;;140.18;51.33;;;;;;;5.42;100.00;101341.78;4940770;29;20039;-80
2022/01/21 12:21:32;;;;;;;124.68;48.15;;;;;;;5.35;100.00;101345.78;4942041;29;20075;-81
2022/01/21 12:23:59;;;;;;;121.90;48.72;;;;;;;5.39;100.00;101340.22;4941169;29;20831;-85
2022/01/21 12:26:26;;;;;;;120.50;47.28;;;;;;;5.56;100.00;101347.75;4939893;29;20056;-82
2022/01/21 12:28:52;;;;;;;123.15;47.05;;;;;;;5.87;100.00;101343.75;4942195;29;20173;-83
2022/01/21 12:31:19;;;;;;;120.80;47.13;;;;;;;5.81;100.00;101359.09;4940881;29;20469;-83
2022/01/21 12:34:14;;;;;;;121.63;45.80;;;;;;;5.80;100.00;101355.63;4905760;29;20079;-86
2022/01/21 12:36:58;;;;;;;120.07;48.78;;;;;;;5.70;100.00;101355.47;4921022;29;20063;-81
2022/01/21 12:39:44;;;;;;;119.50;47.60;;;;;;;5.60;100.00;101349.19;4933939;29;20039;-81
2022/01/21 12:42:41;;;;;;;116.55;44.83;;;;;;;5.77;100.00;101360.28;4941485;29;20094;-88
2022/01/21 12:45:06;;;;;;;110.30;43.45;;;;;;;5.98;100.00;101359.59;4940332;29;20036;-82
2022/01/21 12:47:44;;;;;;;116.15;44.70;;;;;;;5.79;100.00;101353.97;4939774;29;20050;-85
2022/01/21 12:50:37;;;;;;;118.70;46.00;;;;;;;5.83;100.00;101349.31;4940682;29;20096;-82
2022/01/21 12:53:23;;;;;;;126.97;47.35;;;;;;;5.77;100.00;101342.69;4941621;29;20039;-79
2022/01/21 12:55:55;;;;;;;126.75;47.72;;;;;;;5.57;100.00;101345.94;4944498;29;20071;-84
2022/01/21 12:58:43;;;;;;;;;;;;;;;5.65;100.00;101347.06;4944094;29;20149;-79
2022/01/21 13:01:13;;;;;;;118.55;45.63;;;;;;;5.71;100.00;101345.78;4943136;29;19929;-81
2022/01/21 13:03:45;;;;;;;131.95;49.88;;;;;;;5.89;100.00;101349.75;4940986;29;20031;-85
2022/01/21 13:06:19;;;;;;;129.45;46.75;;;;;;;5.94;100.00;101354.66;4932950;29;20043;-81
2022/01/21 13:09:08;;;;;;;130.80;49.45;;;;;;;6.08;100.00;101344.81;4938558;29;20043;-81
2022/01/21 13:12:09;;;;;;;130.38;50.17;;;;;;;6.03;100.00;101349.56;4940519;29;20877;-81
2022/01/21 13:14:36;;;;;;;141.50;49.72;;;;;;;5.88;100.00;101352.47;4940923;29;20028;-82
2022/01/21 13:17:12;;;;;;;128.00;50.10;;;;;;;6.01;100.00;101359.38;4944482;29;20039;-85
2022/01/21 13:19:47;;;;;;;128.90;49.15;;;;;;;6.25;100.00;101346.19;4941904;29;20042;-89
2022/01/21 13:22:16;;;;;;;128.25;47.60;;;;;;;6.21;100.00;101344.75;4941597;29;20528;-81
2022/01/21 13:24:58;;;;;;;145.48;50.17;;;;;;;6.16;100.00;101350.34;4943930;29;20031;-78
2022/01/21 13:27:26;;;;;;;130.27;48.95;;;;;;;6.36;100.00;101346.25;4940303;29;20446;-84
2022/01/21 13:30:03;;;;;;;125.75;50.58;;;;;;;6.01;100.00;101340.09;4940714;29;20039;-79
2022/01/21 13:32:29;;;;;;;125.60;50.75;;;;;;;6.15;100.00;101346.03;4940249;29;20038;-83
2022/01/21 13:35:14;;;;;;;129.35;52.70;;;;;;;6.53;100.00;101350.25;4943628;29;20411;-84
2022/01/21 13:37:58;;;;;;;131.48;50.10;;;;;;;6.78;100.00;101349.19;4928623;29;20074;-80
2022/01/21 13:40:24;;;;;;;137.40;53.45;;;;;;;6.41;100.00;101349.34;4928372;29;20092;-85
2022/01/21 13:43:08;;;;;;;131.35;51.25;;;;;;;6.50;100.00;101350.44;4923047;29;20040;-87
2022/01/21 13:45:34;;;;;;;137.20;51.80;;;;;;;6.78;100.00;101349.19;4933651;29;20047;-85
2022/01/21 13:48:07;;;;;;;132.73;53.50;;;;;;;6.77;100.00;101364.16;4943671;29;20324;-85
2022/01/21 13:50:35;;;;;;;127.18;51.20;;;;;;;6.74;100.00;101362.59;4941143;29;20191;-78
2022/01/21 13:53:04;;;;;;;121.10;49.97;;;;;;;6.67;100.00;101363.19;4937360;29;21182;-80
2022/01/21 13:56:03;;;;;;;135.90;53.60;;;;;;;6.66;100.00;101356.25;4923048;29;20045;-82
2022/01/21 13:58:32;;;;;;;132.13;51.42;;;;;;;6.78;100.00;101354.47;4923526;29;20051;-86
2022/01/21 14:01:12;;;;;;;136.63;52.00;;;;;;;6.70;100.00;101357.69;4921406;29;20115;-83
2022/01/21 14:03:45;;;;;;;138.90;53.90;;;;;;;6.64;100.00;101358.16;4922714;29;20055;-81
2022/01/21 14:06:22;;;;;;;138.07;52.78;;;;;;;6.55;100.00;101359.69;4927453;29;20035;-80
2022/01/21 14:09:01;;;;;;;133.00;51.85;;;;;;;6.54;100.00;101365.91;4925681;29;20108;-87
2022/01/21 14:11:41;;;;;;;133.63;51.80;;;;;;;6.27;100.00;101362.69;4924315;29;20048;-81
2022/01/21 14:14:09;;;;;;;138.40;53.50;;;;;;;6.34;100.00;101366.56;4923327;29;20044;-83
2022/01/21 14:16:53;;;;;;;134.35;54.35;;;;;;;6.24;100.00;101362.94;4925778;29;20149;-86
2022/01/21 14:19:20;;;;;;;129.40;53.42;;;;;;;6.34;100.00;101366.56;4925902;29;20059;-86
2022/01/21 14:21:48;;;;;;;135.63;54.58;;;;;;;6.29;100.00;101366.06;4925109;29;20041;-88
2022/01/21 14:24:25;;;;;;;132.45;52.47;;;;;;;6.15;100.00;101366.25;4923478;29;20047;-81
2022/01/21 14:27:00;;;;;;;135.80;53.22;;;;;;;6.15;100.00;101361.00;4939181;29;20043;-82
2022/01/21 14:29:42;;;;;;;129.90;51.00;;;;;;;6.05;100.00;101360.00;4944742;29;20040;-82
2022/01/21 14:32:15;;;;;;;;;;;;;;;6.16;100.00;101352.97;4948257;29;20055;-80
2022/01/21 14:34:41;;;;;;;122.47;48.25;;;;;;;6.28;100.00;101345.97;4946829;29;19963;-85
2022/01/21 14:37:12;;;;;;;127.18;51.00;;;;;;;6.20;100.00;101333.38;4940309;29;20110;-88
2022/01/21 14:39:41;;;;;;;128.98;52.38;;;;;;;6.23;100.00;101332.31;4942470;29;20122;-89
2022/01/21 14:42:27;;;;;;;143.32;52.63;;;;;;;6.09;100.00;101335.13;4951532;28;20051;-83
2022/01/21 14:45:14;;;;;;;134.70;52.10;;;;;;;5.85;100.00;101323.75;4908464;29;20058;-80
2022/01/21 14:50:46;;;;;;;134.50;55.13;;;;;;;5.98;100.00;101327.19;3089871;27;20072;-82
2022/01/21 14:53:44;;;;;;;148.43;55.05;;;;;;;5.81;100.00;101324.91;4932682;29;20086;-87
2022/01/21 15:00:58;;;;;;;119.05;48.58;;;;;;;6.19;100.00;101326.44;4939463;29;20050;-83
2022/01/21 15:19:45;;;;;;;130.27;52.25;;;;;;;5.85;100.00;101315.84;1779563;23;20290;-82
2022/01/21 15:22:31;;;;;;;124.57;50.05;;;;;;;6.16;100.00;101329.28;4928508;29;20108;-83
2022/01/21 15:25:29;;;;;;;131.18;50.22;;;;;;;6.15;100.00;101322.34;4934404;29;20064;-81
2022/01/21 15:28:24;;;;;;;130.10;49.38;;;;;;;6.05;100.00;101328.41;4937395;29;20098;-84
2022/01/21 15:31:35;;;;;;;124.93;49.72;;;;;;;6.14;100.00;101327.72;4928218;29;20111;-84
2022/01/21 15:34:09;;;;;;;124.78;50.80;;;;;;;6.09;100.00;101333.34;4921969;29;20044;-80
2022/01/21 15:37:38;;;;;;;133.48;51.53;;;;;;;6.21;100.00;101339.47;4931110;29;20056;-81
2022/01/21 15:40:33;;;;;;;116.82;48.63;;;;;;;6.15;100.00;101332.88;4885006;29;20095;-80
2022/01/21 15:43:11;;;;;;;123.68;49.28;;;;;;;6.02;100.00;101334.75;4899796;29;20189;-82
2022/01/21 15:46:05;;;;;;;129.48;49.33;;;;;;;5.99;100.00;101339.41;4880872;29;20083;-81
2022/01/21 15:48:31;;;;;;;125.50;51.67;;;;;;;5.98;100.00;101343.81;4874168;29;20080;-82
2022/01/21 15:51:01;;;;;;;123.15;50.60;;;;;;;5.74;100.00;101328.00;4904636;29;20475;-81
2022/01/21 15:53:27;;;;;;;126.72;52.17;;;;;;;5.67;100.00;101333.78;4919989;29;20470;-82
2022/01/21 15:55:53;;;;;;;127.65;52.72;;;;;;;5.64;100.00;101331.38;4918140;29;20075;-83
2022/01/21 15:58:19;;;;;;;130.48;53.53;;;;;;;5.72;100.00;101343.06;4917603;29;20054;-83
2022/01/21 16:00:44;;;;;;;138.35;55.72;;;;;;;5.93;100.00;101331.97;4919629;29;20444;-81
2022/01/21 16:03:10;;;;;;;136.63;53.22;;;;;;;5.80;100.00;101333.78;4919501;29;20047;-84
2022/01/21 16:05:36;;;;;;;125.75;52.58;;;;;;;5.89;100.00;101341.88;4919799;29;20040;-82
2022/01/21 16:08:03;;;;;;;118.72;51.33;;;;;;;5.63;100.00;101343.69;4918883;29;20127;-82
2022/01/21 16:10:29;;;;;;;128.70;53.05;;;;;;;5.71;100.00;101344.00;4918468;29;20050;-81
2022/01/21 16:12:55;;;;;;;124.70;50.80;;;;;;;5.60;100.00;101345.72;4919840;29;20533;-83
2022/01/21 16:15:20;;;;;;;126.03;51.97;;;;;;;5.59;100.00;101342.25;4919634;29;20036;-82
2022/01/21 16:17:46;;;;;;;120.40;50.75;;;;;;;5.48;100.00;101349.22;4904449;29;20059;-81
2022/01/21 16:20:11;;;;;;;128.05;54.10;;;;;;;5.34;100.00;101347.56;4906593;29;20059;-82
2022/01/21 16:22:39;;;;;;;119.40;51.85;;;;;;;5.29;100.00;101344.44;4900846;29;20055;-82
2022/01/21 16:25:05;;;;;;;123.25;51.17;;;;;;;5.17;100.00;101348.75;4900881;29;20037;-82
2022/01/21 16:27:30;;;;;;;129.93;52.40;;;;;;;5.20;100.00;101352.97;4900324;29;20119;-81
2022/01/21 16:29:56;;;;;;;135.60;53.83;;;;;;;5.22;100.00;101349.28;4900762;29;20040;-83
2022/01/21 16:32:21;;;;;;;136.68;54.97;;;;;;;5.07;100.00;101355.59;4901209;29;20029;-81
2022/01/21 16:34:49;;;;;;;125.65;53.05;;;;;;;5.12;100.00;101363.16;4900225;29;20041;-81
2022/01/21 16:37:15;;;;;;;129.57;55.50;;;;;;;5.31;100.00;101352.19;4900829;29;20037;-82
2022/01/21 16:39:41;;;;;;;147.25;55.60;;;;;;;5.34;100.00;101357.22;4901153;29;20107;-83
2022/01/21 16:42:07;;;;;;;129.98;52.42;;;;;;;5.27;100.00;101351.56;4901946;29;20043;-83
2022/01/21 16:44:33;;;;;;;141.50;58.03;;;;;;;5.21;100.00;101352.00;4900122;29;20486;-83
2022/01/21 16:46:59;;;;;;;144.05;55.38;;;;;;;5.15;100.00;101363.78;4899748;29;20103;-81
2022/01/21 16:49:25;;;;;;;138.20;56.58;;;;;;;5.02;100.00;101365.59;4900047;29;20052;-84
2022/01/21 16:51:53;;;;;;;133.50;55.50;;;;;;;5.18;100.00;101358.31;4900233;29;20088;-83
2022/01/21 16:54:19;;;;;;;137.68;55.30;;;;;;;5.11;100.00;101364.09;4899931;29;20036;-83
2022/01/21 16:56:46;;;;;;;130.63;55.17;;;;;;;5.07;100.00;101366.09;4898858;29;20029;-84
2022/01/21 16:59:13;;;;;;;137.15;55.72;;;;;;;5.04;100.00;101370.72;4901603;29;20037;-83
2022/01/21 17:01:40;;;;;;;139.55;57.67;;;;;;;5.12;100.00;101368.41;4900596;29;20053;-82
2022/01/21 17:04:08;;;;;;;132.27;54.00;;;;;;;5.28;100.00;101362.94;4900882;29;20032;-83
2022/01/21 17:06:34;;;;;;;136.73;57.72;;;;;;;5.22;100.00;101359.78;4902344;29;20039;-86
2022/01/21 17:09:02;;;;;;;121.45;49.72;;;;;;;5.38;100.00;101369.22;4902400;29;20092;-89
2022/01/21 17:11:28;;;;;;;130.05;54.10;;;;;;;5.59;100.00;101368.56;4900805;29;20455;-85
2022/01/21 17:13:54;;;;;;;142.15;57.47;;;;;;;5.48;100.00;101376.34;4901911;29;20044;-86
2022/01/21 17:16:19;;;;;;;137.55;58.13;;;;;;;5.48;100.00;101381.59;4901082;29;20092;-84
2022/01/21 17:18:45;;;;;;;124.30;55.13;;;;;;;5.43;100.00;101389.00;4900630;29;20052;-81
2022/01/21 17:21:11;;;;;;;141.80;60.05;;;;;;;5.19;100.00;101386.28;4908130;29;20053;-82
2022/01/21 17:23:37;;;;;;;139.60;58.40;;;;;;;5.04;100.00;101397.84;4917494;29;20039;-84
2022/01/21 17:26:03;;;;;;;145.00;57.63;;;;;;;4.83;100.00;101416.84;4919690;29;20043;-84
2022/01/21 17:28:29;;;;;;;146.63;59.58;;;;;;;4.50;100.00;101417.34;4922359;29;20544;-86
2022/01/21 17:30:54;;;;;;;147.77;61.13;;;;;;;4.41;100.00;101418.75;4900900;29;20456;-84
2022/01/21 17:33:20;;;;;;;148.18;61.72;;;;;;;4.29;100.00;101419.56;4915341;29;20029;-83
2022/01/21 17:35:46;;;;;;;155.98;62.65;;;;;;;4.14;100.00;101426.63;4913448;29;20048;-82
2022/01/21 17:38:12;;;;;;;151.35;63.00;;;;;;;4.05;100.00;101429.03;4915194;29;20141;-83
2022/01/21 17:40:42;;;;;;;173.57;66.75;;;;;;;4.02;100.00;101434.47;4916724;29;20040;-84
2022/01/21 17:43:09;;;;;;;160.35;64.25;;;;;;;3.93;100.00;101432.44;4918822;29;20452;-84
2022/01/21 17:45:39;;;;;;;161.70;65.57;;;;;;;3.96;100.00;101437.47;4929648;29;20083;-88
2022/01/21 17:48:07;;;;;;;154.32;62.50;;;;;;;3.91;100.00;101434.31;4930482;29;20043;-89
2022/01/21 17:50:34;;;;;;;156.15;62.30;;;;;;;3.84;100.00;101443.50;4922315;29;20036;-87
2022/01/21 17:53:03;;;;;;;148.15;63.13;;;;;;;3.81;100.00;101454.19;4902635;29;20691;-88
2022/01/21 17:55:29;;;;;;;155.68;65.45;;;;;;;3.64;100.00;101452.63;4918987;29;20066;-84
2022/01/21 17:57:56;;;;;;;165.80;65.53;;;;;;;3.55;100.00;101459.25;4914603;29;20073;-85
2022/01/21 18:00:22;;;;;;;148.05;63.25;;;;;;;3.42;100.00;101455.69;4906519;29;20048;-87
2022/01/21 18:02:50;;;;;;;157.25;63.08;;;;;;;3.45;100.00;101454.66;4915888;29;20028;-84
2022/01/21 18:05:16;;;;;;;158.63;62.85;;;;;;;3.36;100.00;101458.69;4911507;29;20043;-83
2022/01/21 18:07:42;;;;;;;146.35;59.97;;;;;;;3.56;100.00;101460.94;4912514;29;20036;-84
2022/01/21 18:10:13;;;;;;;150.55;60.60;;;;;;;3.68;100.00;101469.00;4917006;29;20055;-83
2022/01/21 18:12:39;;;;;;;156.57;61.05;;;;;;;3.46;100.00;101465.06;4915485;29;20064;-86
2022/01/21 18:15:05;;;;;;;153.50;60.20;;;;;;;3.47;100.00;101466.75;4909094;29;20051;-85
2022/01/21 18:17:34;;;;;;;163.25;66.78;;;;;;;3.47;100.00;101472.00;4917747;29;20044;-90
2022/01/21 18:20:00;;;;;;;139.45;56.95;;;;;;;3.70;100.00;101470.59;4925144;29;20509;-90
2022/01/21 18:22:26;;;;;;;142.35;59.30;;;;;;;4.04;100.00;101467.50;4926266;29;20036;-90
2022/01/21 18:24:52;;;;;;;149.52;60.50;;;;;;;4.18;100.00;101481.56;4900254;29;20036;-88
2022/01/21 18:27:18;;;;;;;172.93;65.30;;;;;;;4.09;100.00;101477.72;4913533;29;20120;-87
2022/01/21 18:29:47;;;;;;;163.30;65.03;;;;;;;4.07;100.00;101475.22;4939406;29;20044;-87
2022/01/21 18:32:13;;;;;;;153.27;61.15;;;;;;;4.22;100.00;101480.41;4924158;29;20040;-90
2022/01/21 18:34:47;;;;;;;150.20;63.20;;;;;;;4.04;100.00;101479.81;4928740;29;20056;-91
2022/01/21 18:37:14;;;;;;;144.65;60.10;;;;;;;3.91;100.00;101479.72;4912993;29;20042;-89
2022/01/21 18:39:40;;;;;;;151.63;60.85;;;;;;;4.02;100.00;101484.28;4915170;29;20494;-89
2022/01/21 18:42:17;;;;;;;149.30;60.20;;;;;;;4.02;100.00;101489.53;4925011;29;20115;-90
2022/01/21 18:45:03;;;;;;;150.05;62.85;;;;;;;3.98;100.00;101493.28;4925153;29;20035;-89
2022/01/21 18:47:31;;;;;;;151.07;61.97;;;;;;;3.84;100.00;101503.81;4923238;29;20047;-85
2022/01/21 18:49:58;;;;;;;151.75;62.80;;;;;;;3.59;100.00;101500.06;4921655;29;20035;-84
2022/01/21 18:52:24;;;;;;;149.90;61.05;;;;;;;3.42;100.00;101495.00;4922992;29;20043;-84
2022/01/21 18:54:50;;;;;;;151.95;62.58;;;;;;;3.62;100.00;101497.25;4917089;29;20402;-85
2022/01/21 18:57:15;;;;;;;163.27;62.78;;;;;;;3.90;100.00;101498.19;4929059;29;20032;-83
2022/01/21 18:59:41;;;;;;;145.80;62.95;;;;;;;4.02;100.00;101505.28;4892975;29;20041;-84
2022/01/21 19:02:07;;;;;;;142.10;61.25;;;;;;;4.09;100.00;101506.59;4891839;29;20048;-83
2022/01/21 19:04:33;;;;;;;158.38;64.70;;;;;;;4.04;100.00;101519.16;4907554;29;20478;-83
2022/01/21 19:07:21;;;;;;;161.45;64.03;;;;;;;4.20;100.00;101524.28;4919729;29;20040;-83
2022/01/21 19:09:48;;;;;;;179.00;71.05;;;;;;;4.39;100.00;101520.38;4922947;29;20037;-85
2022/01/21 19:12:14;;;;;;;186.60;72.30;;;;;;;4.13;100.00;101516.78;4937659;29;20080;-83
2022/01/21 19:14:39;;;;;;;200.88;76.97;;;;;;;3.99;100.00;101515.97;4939751;29;20083;-81
2022/01/21 19:17:05;;;;;;;201.45;74.20;;;;;;;4.01;100.00;101517.53;4926056;29;20037;-82
2022/01/21 19:19:31;;;;;;;188.40;73.32;;;;;;;4.10;100.00;101513.53;4919230;29;20100;-80
2022/01/21 19:21:57;;;;;;;196.07;74.85;;;;;;;4.13;100.00;101516.78;4919592;29;20044;-82
2022/01/21 19:24:37;;;;;;;208.23;77.20;;;;;;;3.99;100.00;101524.69;4932187;29;20129;-80
2022/01/21 19:29:29;;;;;;;208.63;77.47;;;;;;;4.25;100.00;101530.91;4926223;29;20111;-81
2022/01/21 19:31:55;;;;;;;209.88;77.28;;;;;;;4.18;100.00;101538.31;4915741;29;20063;-86
2022/01/21 19:34:21;;;;;;;212.05;79.63;;;;;;;3.99;100.00;101542.19;4922766;29;20036;-81
2022/01/21 19:37:05;;;;;;;207.73;77.95;;;;;;;3.92;100.00;101538.25;4921783;29;20036;-80
2022/01/21 19:39:31;;;;;;;214.07;77.78;;;;;;;4.21;100.00;101539.91;4917390;29;20071;-80
2022/01/21 19:41:57;;;;;;;210.63;77.53;;;;;;;4.07;100.00;101550.44;4921350;29;20038;-82
2022/01/21 19:44:31;;;;;;;205.32;78.95;;;;;;;4.03;100.00;101548.94;4919676;29;20130;-81
2022/01/21 19:49:33;;;;;;;217.45;80.25;;;;;;;3.79;100.00;101543.41;4949563;23;20425;-84
2022/01/21 19:52:11;;;;;;;212.15;80.30;;;;;;;3.75;100.00;101538.44;4921783;29;20028;-85